< < Back
Terminal Aerodrome Forecast


Current Version              Previous Versions:   1  2  3  4  5  6  7  8  9  

Terminal Aerodrome Forecast

087
FTUS42 KMLB 301510 AAA
TAFMCO
TAF AMD
KMCO 301510Z 3015/0112 16010KT P6SM BKN350
     FM301800 11013G18KT P6SM SCT050 BKN300
     FM010200 14004KT P6SM FEW070 BKN300=

Latest METAR

151
SAUS70 KWBC 010200 RRX
MTRMCO
METAR KMCO 010153Z 12008KT 10SM BKN250 24/19 A3001 RMK AO2 SLP161
T02390189 $


USA.gov is the U.S. government's official web portal to all federal, state and local government web resources and services.